Terminal Aerodrome Forecast
Issued by NWS

Home | Current Version | Previous Version | Text Only | Print | Product List | Glossary On
Versions: 1 2 3 4 5 6 7 8 9 10 11 12 13 14
287
FTUS43 KTOP 181132
TAFMHK
TAF
KMHK 181132Z 1812/1912 36020G30KT P6SM VCSH SCT008 OVC012
      TEMPO 1812/1815 3SM -RA BR
     FM181500 34020G31KT P6SM SCT030 SCT150
     FM182300 31005KT P6SM SKC=

USA.gov is the U.S. government's official web portal to all federal, state and local government web resources and services.